Time;durP1;ratioP1;P1;durP2;ratioP2;P2;SDS_P1;SDS_P2;PMS_P1;PMS_P2;Temp;Humidity;BMP_temperature;BMP_pressure;BME280_temperature;BME280_humidity;BME280_pressure;Samples;Min_cycle;Max_cycle;Signal;HPM_P1;HPM_P2
2023/05/27 00:00:56;;;;;;;1.30;1.20;;;20.80;65.60;;;;;;5042791;28;20387;-85
2023/05/27 00:03:21;;;;;;;1.13;1.02;;;20.80;65.60;;;;;;5051853;28;20533;-85
2023/05/27 00:05:47;;;;;;;1.35;1.25;;;20.80;65.60;;;;;;5049385;28;20508;-85
2023/05/27 00:08:12;;;;;;;1.52;1.20;;;20.80;65.60;;;;;;5047247;28;20041;-85
2023/05/27 00:10:38;;;;;;;1.42;1.33;;;20.80;65.60;;;;;;5041142;28;20045;-84
2023/05/27 00:13:03;;;;;;;1.63;1.10;;;20.80;65.60;;;;;;5057306;28;20036;-84
2023/05/27 00:15:30;;;;;;;1.30;1.20;;;20.80;65.60;;;;;;5052796;28;20091;-85
2023/05/27 00:18:01;;;;;;;1.20;1.10;;;20.80;65.60;;;;;;5038212;28;20071;-85
2023/05/27 00:20:27;;;;;;;0.98;0.98;;;20.80;65.60;;;;;;5038941;28;20087;-84
2023/05/27 00:22:52;;;;;;;0.95;0.95;;;20.80;65.60;;;;;;5054974;28;20049;-85
2023/05/27 00:25:20;;;;;;;0.98;0.98;;;20.80;65.60;;;;;;5053900;28;20044;-85
2023/05/27 00:27:46;;;;;;;1.13;1.02;;;20.80;65.50;;;;;;5029927;28;20041;-85
2023/05/27 00:30:12;;;;;;;1.08;1.05;;;20.80;65.60;;;;;;5050108;28;20422;-84
2023/05/27 00:32:38;;;;;;;1.40;1.25;;;20.70;65.50;;;;;;5050463;28;20040;-84
2023/05/27 00:35:03;;;;;;;1.00;1.00;;;20.80;65.60;;;;;;5053447;28;20033;-85
2023/05/27 00:37:29;;;;;;;1.23;1.00;;;20.80;65.60;;;;;;5058754;28;20376;-84
2023/05/27 00:39:55;;;;;;;0.90;0.90;;;20.80;65.70;;;;;;5046394;28;20041;-84
2023/05/27 00:42:20;;;;;;;1.30;1.20;;;20.80;65.60;;;;;;5043901;28;20029;-84
2023/05/27 00:44:46;;;;;;;1.35;1.25;;;20.80;65.60;;;;;;5046961;28;20449;-85
2023/05/27 00:47:11;;;;;;;1.10;1.10;;;20.80;65.60;;;;;;5035565;28;20115;-84
2023/05/27 00:49:37;;;;;;;1.30;1.20;;;20.70;65.50;;;;;;5056978;28;20053;-84
2023/05/27 00:52:03;;;;;;;0.90;0.90;;;20.80;65.60;;;;;;5036287;28;20037;-83
2023/05/27 00:54:31;;;;;;;1.25;1.13;;;20.80;65.60;;;;;;5033229;28;20128;-84
2023/05/27 00:56:57;;;;;;;0.88;0.82;;;20.70;65.50;;;;;;5056046;28;20128;-84
2023/05/27 00:59:23;;;;;;;0.98;0.95;;;20.80;65.60;;;;;;5044986;28;21256;-84
2023/05/27 01:01:49;;;;;;;0.93;0.93;;;20.70;65.50;;;;;;5054493;28;20045;-84
2023/05/27 01:04:15;;;;;;;1.23;1.00;;;20.70;65.50;;;;;;5052596;28;20083;-84
2023/05/27 01:06:58;;;;;;;0.90;0.90;;;20.80;65.50;;;;;;5053238;28;20111;-84
2023/05/27 01:09:33;;;;;;;3.40;1.00;;;20.80;65.50;;;;;;5051653;28;20109;-84
2023/05/27 01:12:02;;;;;;;0.90;0.90;;;20.70;65.50;;;;;;5046078;28;20044;-84
2023/05/27 01:14:28;;;;;;;1.00;0.80;;;20.70;65.40;;;;;;5054527;28;20533;-84
2023/05/27 01:16:56;;;;;;;0.93;0.93;;;20.70;66.40;;;;;;5056400;28;20044;-84
2023/05/27 01:19:30;;;;;;;1.20;1.10;;;20.70;65.50;;;;;;5056128;28;20152;-84
2023/05/27 01:21:55;;;;;;;1.10;1.10;;;20.70;65.70;;;;;;5030316;28;20045;-84
2023/05/27 01:24:21;;;;;;;0.90;0.90;;;20.70;65.70;;;;;;5033985;28;20041;-84
2023/05/27 01:26:46;;;;;;;1.00;0.90;;;20.80;65.80;;;;;;5037542;28;20045;-84
2023/05/27 01:29:12;;;;;;;1.38;0.98;;;20.70;65.70;;;;;;5053001;28;20573;-84
2023/05/27 01:31:41;;;;;;;0.95;0.95;;;20.70;65.70;;;;;;5051862;28;20045;-84
2023/05/27 01:34:08;;;;;;;0.95;0.95;;;20.70;65.70;;;;;;5059061;28;20056;-84
2023/05/27 01:36:38;;;;;;;2.35;0.90;;;20.70;65.60;;;;;;5035539;28;20189;-84
2023/05/27 01:39:04;;;;;;;1.20;1.10;;;20.70;65.60;;;;;;5031012;28;20037;-84
2023/05/27 01:41:29;;;;;;;0.95;0.95;;;20.70;65.60;;;;;;5052890;28;20419;-84
2023/05/27 01:43:55;;;;;;;2.83;1.00;;;20.70;65.60;;;;;;5034936;28;20127;-84
2023/05/27 01:46:20;;;;;;;1.52;0.88;;;20.80;65.70;;;;;;5044565;28;20490;-83
2023/05/27 01:48:46;;;;;;;1.35;1.10;;;20.70;65.50;;;;;;5028166;28;20037;-84
2023/05/27 01:51:12;;;;;;;1.15;1.00;;;20.70;65.60;;;;;;5014248;28;20042;-83
2023/05/27 01:53:37;;;;;;;1.70;1.40;;;20.70;65.60;;;;;;5050564;28;20529;-83
2023/05/27 01:56:03;;;;;;;1.20;1.10;;;20.70;65.60;;;;;;5047430;28;20052;-84
2023/05/27 01:58:28;;;;;;;0.82;0.82;;;20.70;65.60;;;;;;5037347;28;20035;-84
2023/05/27 02:00:54;;;;;;;1.02;0.93;;;20.70;65.60;;;;;;5045588;28;20685;-84
2023/05/27 02:03:19;;;;;;;1.10;1.00;;;20.70;65.60;;;;;;5040185;28;20360;-84
2023/05/27 02:05:45;;;;;;;1.13;1.00;;;20.70;65.60;;;;;;5053175;28;20036;-84
2023/05/27 02:08:11;;;;;;;1.05;0.95;;;20.70;65.60;;;;;;5032996;28;20052;-84
2023/05/27 02:10:36;;;;;;;1.40;1.20;;;20.70;65.60;;;;;;5041054;28;20041;-84
2023/05/27 02:13:02;;;;;;;1.30;1.20;;;20.60;65.50;;;;;;5054478;28;20045;-85
2023/05/27 02:15:28;;;;;;;1.10;0.80;;;20.70;65.60;;;;;;5044141;28;20106;-84
2023/05/27 02:17:55;;;;;;;1.25;1.15;;;20.70;65.60;;;;;;5044474;28;20029;-84
2023/05/27 02:20:22;;;;;;;1.20;1.10;;;20.70;65.60;;;;;;5044577;28;20041;-83
2023/05/27 02:22:49;;;;;;;0.98;0.90;;;20.70;65.70;;;;;;5046921;28;20036;-84
2023/05/27 02:25:15;;;;;;;1.50;1.30;;;20.70;65.60;;;;;;5046236;28;20037;-84
2023/05/27 02:27:41;;;;;;;1.30;1.20;;;20.70;65.60;;;;;;5044833;28;20041;-84
2023/05/27 02:30:08;;;;;;;1.13;1.00;;;20.60;65.50;;;;;;5045614;28;20081;-84
2023/05/27 02:32:33;;;;;;;1.30;1.20;;;20.60;65.50;;;;;;5036150;28;20057;-84
2023/05/27 02:34:59;;;;;;;1.08;0.90;;;20.60;65.50;;;;;;5047265;28;20041;-84
2023/05/27 02:37:24;;;;;;;1.58;1.02;;;20.60;65.50;;;;;;5041894;28;20048;-84
2023/05/27 02:39:52;;;;;;;1.02;0.93;;;20.60;65.60;;;;;;5044199;28;20033;-84
2023/05/27 02:42:18;;;;;;;0.80;0.80;;;20.60;65.60;;;;;;5042064;28;20037;-84
2023/05/27 02:44:44;;;;;;;1.50;1.40;;;20.60;65.60;;;;;;5036576;28;20513;-84
2023/05/27 02:47:10;;;;;;;1.33;1.23;;;20.60;65.50;;;;;;5043389;28;20045;-83
2023/05/27 02:49:36;;;;;;;1.27;1.17;;;20.60;65.50;;;;;;5041698;28;20044;-84
2023/05/27 02:52:02;;;;;;;1.10;1.00;;;20.60;65.50;;;;;;5044706;28;20045;-84
2023/05/27 02:54:27;;;;;;;1.20;1.10;;;20.60;65.40;;;;;;5046730;28;20037;-83
2023/05/27 02:56:53;;;;;;;0.85;0.82;;;20.60;65.40;;;;;;5043732;28;20041;-84
2023/05/27 02:59:18;;;;;;;1.33;1.23;;;20.60;65.40;;;;;;5046656;28;20038;-83
2023/05/27 03:01:44;;;;;;;1.25;0.90;;;20.60;65.30;;;;;;5035818;28;20035;-83
2023/05/27 03:04:10;;;;;;;1.38;1.00;;;20.60;65.20;;;;;;5041913;28;20461;-83
2023/05/27 03:06:36;;;;;;;0.93;0.85;;;20.60;65.30;;;;;;5041467;28;20041;-83
2023/05/27 03:09:02;;;;;;;0.90;0.90;;;20.60;65.40;;;;;;5049462;28;20033;-83
2023/05/27 03:11:28;;;;;;;1.00;0.90;;;20.60;65.30;;;;;;5038780;28;20553;-83
2023/05/27 03:13:53;;;;;;;0.90;0.90;;;20.60;65.30;;;;;;5026774;28;20045;-84
2023/05/27 03:16:19;;;;;;;1.00;0.90;;;20.60;65.20;;;;;;5026098;28;20083;-83
2023/05/27 03:18:45;;;;;;;1.20;0.90;;;20.60;65.20;;;;;;5025218;28;20045;-84
2023/05/27 03:21:12;;;;;;;0.90;0.90;;;20.60;65.20;;;;;;5023857;28;20038;-84
2023/05/27 03:23:38;;;;;;;0.98;0.98;;;20.60;65.10;;;;;;5020517;28;20053;-83
2023/05/27 03:26:04;;;;;;;1.17;1.10;;;20.60;65.00;;;;;;5024440;28;20034;-83
2023/05/27 03:28:29;;;;;;;1.08;1.08;;;20.60;65.20;;;;;;5026996;28;20121;-83
2023/05/27 03:30:55;;;;;;;0.90;0.90;;;20.60;65.10;;;;;;5022082;28;20109;-83
2023/05/27 03:33:22;;;;;;;0.77;0.77;;;20.60;65.10;;;;;;5033345;28;20395;-84
2023/05/27 03:35:49;;;;;;;1.10;0.95;;;20.60;65.00;;;;;;5024100;28;20053;-84
2023/05/27 03:38:14;;;;;;;1.55;1.08;;;20.60;65.10;;;;;;5025371;28;20076;-83
2023/05/27 03:40:40;;;;;;;1.55;1.30;;;20.60;65.10;;;;;;5020822;28;20066;-84
2023/05/27 03:43:05;;;;;;;1.83;1.27;;;20.60;65.20;;;;;;5009186;28;20037;-83
2023/05/27 03:45:31;;;;;;;1.13;1.02;;;20.50;65.10;;;;;;5023470;28;20407;-83
2023/05/27 03:47:56;;;;;;;0.95;0.95;;;20.60;65.20;;;;;;5022485;28;20041;-83
2023/05/27 03:50:22;;;;;;;1.30;1.20;;;20.60;65.20;;;;;;5022282;28;20128;-84
2023/05/27 03:52:47;;;;;;;1.10;1.00;;;20.60;65.20;;;;;;5021533;28;20029;-82
2023/05/27 03:55:13;;;;;;;1.23;1.13;;;20.60;65.30;;;;;;5016508;28;20515;-83
2023/05/27 03:57:39;;;;;;;1.40;1.13;;;20.50;65.30;;;;;;5021540;28;20042;-83
2023/05/27 04:00:08;;;;;;;1.13;1.00;;;20.50;65.20;;;;;;5006337;28;20034;-82
2023/05/27 04:02:34;;;;;;;0.80;0.80;;;20.50;65.20;;;;;;5013719;28;20104;-82
2023/05/27 04:05:00;;;;;;;1.00;1.00;;;20.50;65.30;;;;;;5019639;28;20150;-82
2023/05/27 04:07:26;;;;;;;0.80;0.80;;;20.50;65.30;;;;;;5014214;28;20569;-82
2023/05/27 04:09:52;;;;;;;0.90;0.90;;;20.50;65.30;;;;;;5006455;28;20100;-82
2023/05/27 04:12:18;;;;;;;1.10;1.10;;;20.50;65.20;;;;;;5018774;28;20025;-82
2023/05/27 04:14:43;;;;;;;1.23;1.13;;;20.50;65.10;;;;;;5042255;28;20040;-82
2023/05/27 04:17:09;;;;;;;1.70;1.08;;;20.50;65.20;;;;;;5042779;28;20619;-82
2023/05/27 04:19:36;;;;;;;1.00;1.00;;;20.50;65.20;;;;;;5033165;28;20045;-83
2023/05/27 04:22:01;;;;;;;1.10;1.00;;;20.50;65.10;;;;;;5042522;28;20029;-83
2023/05/27 04:24:27;;;;;;;1.52;1.30;;;20.50;65.10;;;;;;5025207;28;20043;-82
2023/05/27 04:26:53;;;;;;;1.08;0.93;;;20.50;65.00;;;;;;5040405;28;20530;-83
2023/05/27 04:29:20;;;;;;;1.05;0.95;;;20.50;65.10;;;;;;5043403;28;20029;-82
2023/05/27 04:31:45;;;;;;;1.63;1.40;;;20.50;65.10;;;;;;5026561;28;20039;-85
2023/05/27 04:34:11;;;;;;;5.82;2.95;;;20.50;64.40;;;;;;5042123;28;20029;-87
2023/05/27 04:36:36;;;;;;;7.03;3.60;;;20.20;57.70;;;;;;5020301;28;20491;-87
2023/05/27 04:39:03;;;;;;;8.07;3.58;;;18.40;59.90;;;;;;5005048;28;20356;-79
2023/05/27 04:41:29;;;;;;;8.23;3.90;;;17.50;62.80;;;;;;5006243;28;20506;-79
2023/05/27 04:43:56;;;;;;;10.82;3.50;;;16.80;65.00;;;;;;5029177;28;20037;-79
2023/05/27 04:46:23;;;;;;;8.90;3.88;;;16.50;66.30;;;;;;5044859;28;20506;-79
2023/05/27 04:48:50;;;;;;;6.10;3.13;;;16.30;67.00;;;;;;5040843;28;20049;-79
2023/05/27 04:51:17;;;;;;;9.05;3.92;;;16.20;67.20;;;;;;5024146;28;20040;-79
2023/05/27 04:53:43;;;;;;;10.23;3.97;;;16.10;67.50;;;;;;5019344;28;20063;-79
2023/05/27 04:56:09;;;;;;;9.23;3.33;;;16.00;67.90;;;;;;5040242;28;20058;-79
2023/05/27 04:58:35;;;;;;;10.02;3.47;;;16.00;68.10;;;;;;5035602;28;20051;-79
2023/05/27 05:01:01;;;;;;;10.65;4.25;;;15.90;68.40;;;;;;5010630;28;20033;-79
2023/05/27 05:03:36;;;;;;;8.23;4.30;;;15.80;69.10;;;;;;5039834;28;20033;-80
2023/05/27 05:06:02;;;;;;;11.82;4.13;;;15.70;68.80;;;;;;5038159;28;20401;-80
2023/05/27 05:08:28;;;;;;;10.30;4.05;;;15.70;69.30;;;;;;5041507;28;20046;-79
2023/05/27 05:10:53;;;;;;;8.45;3.55;;;15.60;69.50;;;;;;5039023;28;20044;-80
2023/05/27 05:13:19;;;;;;;7.47;3.30;;;15.70;69.70;;;;;;5034342;28;20040;-79
2023/05/27 05:15:45;;;;;;;10.52;3.75;;;15.60;69.60;;;;;;5040931;28;20061;-80
2023/05/27 05:18:11;;;;;;;10.88;3.88;;;15.60;69.60;;;;;;5040930;28;20289;-80
2023/05/27 05:20:37;;;;;;;9.48;3.70;;;15.50;70.10;;;;;;5040058;28;20072;-80
2023/05/27 05:23:02;;;;;;;9.68;3.90;;;15.50;71.10;;;;;;5043484;28;20037;-79
2023/05/27 05:25:30;;;;;;;7.43;3.67;;;15.50;70.20;;;;;;5040114;28;20063;-79
2023/05/27 05:27:55;;;;;;;7.32;3.47;;;15.50;70.50;;;;;;5040425;28;20044;-79
2023/05/27 05:30:21;;;;;;;9.20;3.80;;;15.50;70.70;;;;;;5042581;28;20044;-80
2023/05/27 05:32:47;;;;;;;15.65;4.03;;;15.40;70.80;;;;;;5039238;28;20041;-80
2023/05/27 05:35:12;;;;;;;8.57;3.63;;;15.40;71.00;;;;;;5046041;28;20141;-80
2023/05/27 05:37:38;;;;;;;7.85;4.03;;;15.50;70.50;;;;;;5049326;28;20045;-80
2023/05/27 05:40:04;;;;;;;9.75;3.85;;;15.50;70.70;;;;;;5047323;28;20029;-80
2023/05/27 05:42:29;;;;;;;7.35;3.53;;;15.50;71.00;;;;;;5046130;28;20036;-79
2023/05/27 05:44:55;;;;;;;8.65;3.63;;;15.50;71.00;;;;;;5044929;28;20048;-80
2023/05/27 05:47:20;;;;;;;7.95;3.90;;;15.50;71.30;;;;;;5048661;28;20040;-79
2023/05/27 05:49:46;;;;;;;9.00;3.67;;;15.50;71.00;;;;;;5045725;28;20119;-80
2023/05/27 05:52:12;;;;;;;10.25;3.72;;;15.50;71.60;;;;;;5045302;28;20405;-80
2023/05/27 05:54:37;;;;;;;9.05;3.97;;;15.60;71.30;;;;;;5027802;28;20037;-79
2023/05/27 05:57:03;;;;;;;12.10;4.10;;;15.50;71.20;;;;;;5026551;28;20549;-79
2023/05/27 05:59:28;;;;;;;9.68;3.35;;;15.60;71.10;;;;;;5045128;28;20049;-79
2023/05/27 06:01:54;;;;;;;8.45;3.50;;;15.70;70.90;;;;;;5030461;28;20482;-80
2023/05/27 06:04:20;;;;;;;6.53;3.40;;;15.70;71.10;;;;;;5046840;28;20154;-79
2023/05/27 06:06:45;;;;;;;6.43;3.38;;;15.70;71.10;;;;;;5046086;28;20132;-79
2023/05/27 06:09:11;;;;;;;8.13;3.60;;;15.60;71.50;;;;;;5044497;28;20041;-80
2023/05/27 06:11:37;;;;;;;10.68;3.72;;;15.60;71.70;;;;;;5044505;28;20029;-79
2023/05/27 06:14:02;;;;;;;7.43;3.78;;;15.70;72.10;;;;;;5046629;28;20624;-79
2023/05/27 06:16:28;;;;;;;10.10;3.75;;;15.70;72.20;;;;;;5043384;28;20033;-79
2023/05/27 06:18:54;;;;;;;9.40;4.20;;;15.70;72.00;;;;;;5043502;28;20053;-79
2023/05/27 06:21:20;;;;;;;7.22;4.00;;;15.70;71.50;;;;;;5043005;28;20435;-79
2023/05/27 06:23:45;;;;;;;8.25;3.72;;;15.80;72.00;;;;;;5046425;28;20068;-79
2023/05/27 06:26:11;;;;;;;10.25;3.58;;;15.80;72.10;;;;;;5045205;28;20577;-78
2023/05/27 06:28:37;;;;;;;7.68;3.28;;;15.90;71.50;;;;;;5041763;28;20056;-82
2023/05/27 06:31:02;;;;;;;5.35;3.20;;;16.10;70.40;;;;;;5046231;28;20063;-81
2023/05/27 06:33:28;;;;;;;4.15;2.97;;;16.50;68.70;;;;;;5047699;28;20064;-80
2023/05/27 06:35:53;;;;;;;6.82;3.33;;;16.80;68.10;;;;;;5046668;28;20132;-80
2023/05/27 06:38:19;;;;;;;9.95;3.28;;;16.90;67.70;;;;;;5041650;28;20406;-81
2023/05/27 06:40:44;;;;;;;7.35;3.55;;;17.10;67.40;;;;;;5030495;28;20047;-82
2023/05/27 06:43:10;;;;;;;7.03;3.10;;;17.20;66.90;;;;;;5026214;28;20093;-81
2023/05/27 06:45:36;;;;;;;5.47;2.88;;;17.20;66.70;;;;;;5025925;28;20040;-81
2023/05/27 06:48:01;;;;;;;8.80;3.40;;;17.20;66.70;;;;;;5038558;28;20033;-81
2023/05/27 06:50:27;;;;;;;7.03;3.30;;;17.20;67.00;;;;;;5019167;28;20065;-79
2023/05/27 06:52:52;;;;;;;7.28;3.40;;;17.30;66.90;;;;;;5046724;28;20060;-83
2023/05/27 06:55:18;;;;;;;7.82;3.25;;;17.20;67.00;;;;;;5027334;28;20044;-84
2023/05/27 06:57:43;;;;;;;5.78;3.50;;;17.40;66.80;;;;;;5025658;28;21123;-88
2023/05/27 07:00:10;;;;;;;9.15;2.80;;;17.40;66.70;;;;;;5027930;28;20501;-79
2023/05/27 07:02:35;;;;;;;6.30;3.10;;;17.40;66.80;;;;;;5027829;28;20037;-82
2023/05/27 07:05:01;;;;;;;8.38;3.67;;;17.40;66.90;;;;;;5045511;28;20437;-81
2023/05/27 07:07:26;;;;;;;4.70;2.95;;;17.50;66.90;;;;;;5042180;28;20053;-81
2023/05/27 07:09:53;;;;;;;7.32;3.53;;;17.40;67.00;;;;;;5043491;28;20044;-80
2023/05/27 07:12:19;;;;;;;6.28;2.90;;;17.50;66.80;;;;;;5040802;28;20049;-81
2023/05/27 07:14:45;;;;;;;5.80;3.40;;;17.60;66.90;;;;;;5042867;28;20053;-83
2023/05/27 07:17:11;;;;;;;7.45;3.42;;;17.60;66.90;;;;;;5043432;28;20658;-79
2023/05/27 07:19:37;;;;;;;3.97;2.80;;;17.50;66.90;;;;;;5041582;28;20052;-80
2023/05/27 07:22:03;;;;;;;6.15;3.22;;;17.80;66.70;;;;;;5044817;28;20029;-81
2023/05/27 07:24:28;;;;;;;6.75;2.92;;;17.70;66.70;;;;;;5040966;28;20040;-79
2023/05/27 07:26:54;;;;;;;6.72;3.00;;;17.80;66.70;;;;;;5041533;28;20048;-80
2023/05/27 07:29:20;;;;;;;4.68;3.08;;;17.80;66.60;;;;;;5042412;28;20460;-79
2023/05/27 07:31:46;;;;;;;6.72;3.50;;;17.90;66.60;;;;;;5041169;28;20830;-80
2023/05/27 07:34:12;;;;;;;4.80;2.92;;;17.90;66.70;;;;;;4686185;28;9999691;-78
2023/05/27 07:36:37;;;;;;;5.75;2.95;;;17.90;66.70;;;;;;5038233;28;20359;-78
2023/05/27 07:39:03;;;;;;;3.78;2.58;;;18.00;66.60;;;;;;5038032;28;20044;-79
2023/05/27 07:41:29;;;;;;;7.10;3.35;;;18.00;66.70;;;;;;5036302;28;20057;-79
2023/05/27 07:43:55;;;;;;;6.57;3.17;;;18.00;66.50;;;;;;5039877;28;20510;-79
2023/05/27 07:46:21;;;;;;;6.43;3.10;;;18.00;66.60;;;;;;5038960;28;20781;-82
2023/05/27 07:48:47;;;;;;;5.30;2.88;;;18.00;67.10;;;;;;5035305;28;20057;-81
2023/05/27 07:51:12;;;;;;;5.22;3.13;;;18.20;66.80;;;;;;5036911;28;20068;-79
2023/05/27 07:53:38;;;;;;;5.80;2.88;;;18.30;67.10;;;;;;5038169;28;20040;-78
2023/05/27 07:56:04;;;;;;;6.95;3.10;;;18.40;66.80;;;;;;5041326;28;20056;-80
2023/05/27 07:58:29;;;;;;;6.60;3.10;;;18.40;66.70;;;;;;5041534;28;20083;-78
2023/05/27 08:00:55;;;;;;;4.15;2.60;;;18.50;67.10;;;;;;5040298;28;20063;-79
2023/05/27 08:03:21;;;;;;;6.70;2.72;;;18.60;67.30;;;;;;5024790;28;20178;-78
2023/05/27 08:05:47;;;;;;;6.72;2.83;;;18.60;67.30;;;;;;5038563;28;20149;-79
2023/05/27 08:08:12;;;;;;;6.63;2.85;;;18.70;67.30;;;;;;5040044;28;20075;-78
2023/05/27 08:10:39;;;;;;;7.18;3.47;;;18.70;67.40;;;;;;5035364;28;20136;-78
2023/05/27 08:13:04;;;;;;;5.35;2.80;;;18.80;67.70;;;;;;5037540;28;20045;-78
2023/05/27 08:15:30;;;;;;;4.35;2.70;;;18.80;67.60;;;;;;5039474;28;20127;-78
2023/05/27 08:17:56;;;;;;;4.10;2.90;;;18.90;67.70;;;;;;5038660;28;20031;-78
2023/05/27 08:20:21;;;;;;;4.22;3.00;;;18.90;67.40;;;;;;5029021;28;20040;-78
2023/05/27 08:22:47;;;;;;;4.68;3.67;;;18.90;68.10;;;;;;5038676;28;20538;-79
2023/05/27 08:25:12;;;;;;;4.75;3.08;;;19.00;68.00;;;;;;5039188;28;20040;-78
2023/05/27 08:27:51;;;;;;;4.93;3.03;;;19.00;67.50;;;;;;5038748;28;20040;-78
2023/05/27 08:30:17;;;;;;;4.50;3.45;;;19.00;67.50;;;;;;5023452;28;20057;-79
2023/05/27 08:32:42;;;;;;;4.22;2.75;;;19.10;67.20;;;;;;5038088;28;20047;-79
2023/05/27 08:35:08;;;;;;;4.68;2.97;;;19.10;67.30;;;;;;5036844;28;20507;-78
2023/05/27 08:37:34;;;;;;;2.85;2.40;;;19.10;67.50;;;;;;5037965;28;20187;-78
2023/05/27 08:40:00;;;;;;;3.97;2.45;;;19.20;67.60;;;;;;5036845;28;20507;-78
2023/05/27 08:42:26;;;;;;;4.07;2.58;;;19.20;67.70;;;;;;5035423;28;20044;-78
2023/05/27 08:44:51;;;;;;;4.63;2.50;;;19.20;67.70;;;;;;5022103;28;20084;-79
2023/05/27 08:47:17;;;;;;;2.53;2.30;;;19.20;67.60;;;;;;5040124;28;20145;-79
2023/05/27 08:49:43;;;;;;;4.03;3.10;;;19.20;67.30;;;;;;5040787;28;20063;-79
2023/05/27 08:52:10;;;;;;;2.60;2.33;;;19.30;67.30;;;;;;5038995;28;20502;-79
2023/05/27 08:54:36;;;;;;;4.43;2.67;;;19.30;67.30;;;;;;4687628;28;9999974;-78
2023/05/27 08:57:02;;;;;;;3.40;2.80;;;19.30;67.10;;;;;;5023302;28;20049;-78
2023/05/27 08:59:27;;;;;;;3.97;2.15;;;19.30;67.10;;;;;;5035040;28;20061;-78
2023/05/27 09:01:53;;;;;;;3.85;2.58;;;19.40;66.90;;;;;;5049464;28;20103;-79
2023/05/27 09:04:18;;;;;;;2.92;2.33;;;19.40;67.00;;;;;;5038634;28;20048;-79
2023/05/27 09:06:44;;;;;;;3.33;2.10;;;19.40;66.80;;;;;;5019571;28;20033;-79
2023/05/27 09:09:10;;;;;;;3.15;2.10;;;19.40;66.60;;;;;;5038899;28;20041;-79
2023/05/27 09:11:39;;;;;;;3.22;2.65;;;19.50;66.50;;;;;;5041031;28;20099;-79
2023/05/27 09:14:04;;;;;;;3.90;2.10;;;19.40;66.30;;;;;;5019425;28;20048;-80
2023/05/27 09:16:30;;;;;;;4.90;2.30;;;19.50;66.30;;;;;;5053853;28;20052;-80
2023/05/27 09:18:56;;;;;;;3.80;2.30;;;19.60;66.00;;;;;;5026795;28;20041;-80
2023/05/27 09:21:23;;;;;;;3.10;2.53;;;19.50;66.20;;;;;;5039826;28;20087;-80
2023/05/27 09:23:49;;;;;;;2.40;2.10;;;19.60;66.30;;;;;;5023230;28;20065;-82
2023/05/27 09:26:14;;;;;;;3.78;2.70;;;19.60;66.50;;;;;;5041883;28;20116;-82
2023/05/27 09:28:40;;;;;;;3.28;2.33;;;19.60;67.70;;;;;;5032687;28;20511;-82
2023/05/27 09:31:06;;;;;;;3.22;2.15;;;19.60;67.70;;;;;;5041492;28;20033;-79
2023/05/27 09:33:37;;;;;;;2.97;2.10;;;19.70;67.60;;;;;;5043931;28;20108;-78
2023/05/27 09:36:03;;;;;;;1.83;1.73;;;19.70;67.10;;;;;;5023995;28;20053;-78
2023/05/27 09:38:32;;;;;;;2.85;2.47;;;19.70;66.80;;;;;;5007185;28;20048;-79
2023/05/27 09:40:58;;;;;;;3.13;2.10;;;19.70;66.50;;;;;;5042108;28;20060;-79
2023/05/27 09:43:25;;;;;;;2.10;1.90;;;19.80;66.40;;;;;;5042955;28;20045;-79
2023/05/27 09:45:52;;;;;;;2.42;2.20;;;19.80;66.20;;;;;;5042936;28;20442;-78
2023/05/27 09:48:18;;;;;;;3.28;2.55;;;19.80;66.10;;;;;;5039554;28;20506;-80
2023/05/27 09:50:44;;;;;;;2.17;1.98;;;19.80;66.00;;;;;;5017754;28;20041;-78
2023/05/27 09:53:09;;;;;;;2.15;1.92;;;19.80;66.00;;;;;;5024049;28;20124;-79
2023/05/27 09:55:35;;;;;;;2.63;2.13;;;19.80;66.00;;;;;;5014464;28;20048;-78
2023/05/27 09:58:01;;;;;;;2.53;2.17;;;19.90;66.00;;;;;;5038723;28;20040;-79
2023/05/27 10:00:27;;;;;;;1.98;1.80;;;19.90;65.80;;;;;;5025078;28;20036;-79
2023/05/27 10:02:53;;;;;;;1.90;1.67;;;19.90;65.70;;;;;;5044145;28;20040;-79
2023/05/27 10:05:20;;;;;;;2.78;2.10;;;20.00;65.70;;;;;;5043763;28;20076;-78
2023/05/27 10:07:46;;;;;;;2.30;1.90;;;19.90;65.60;;;;;;5037124;28;20056;-78
2023/05/27 10:10:16;;;;;;;2.45;1.88;;;20.00;65.70;;;;;;5039709;28;20075;-79
2023/05/27 10:12:42;;;;;;;2.53;2.10;;;20.00;65.60;;;;;;5023901;28;20052;-82
2023/05/27 10:15:08;;;;;;;3.25;2.28;;;20.00;65.50;;;;;;5041469;28;20077;-78
2023/05/27 10:17:47;;;;;;;3.60;2.42;;;20.00;65.50;;;;;;5022592;28;20083;-79
2023/05/27 10:20:23;;;;;;;3.90;2.40;;;20.00;65.80;;;;;;5057415;28;20053;-80
2023/05/27 10:22:49;;;;;;;3.45;1.95;;;20.00;65.40;;;;;;5026422;28;20533;-84
2023/05/27 10:25:14;;;;;;;1.80;1.70;;;20.10;65.40;;;;;;5042759;28;20136;-84
2023/05/27 10:27:46;;;;;;;3.65;2.42;;;20.10;65.40;;;;;;5040013;28;20071;-85
2023/05/27 10:30:13;;;;;;;2.70;2.17;;;20.10;65.40;;;;;;5025116;28;20192;-87
2023/05/27 10:32:43;;;;;;;3.13;1.85;;;20.10;65.40;;;;;;5051637;28;20080;-84
2023/05/27 10:35:09;;;;;;;2.53;2.00;;;20.10;65.40;;;;;;5008381;28;20519;-84
2023/05/27 10:37:35;;;;;;;2.38;2.10;;;20.10;65.30;;;;;;5024457;28;20132;-85
2023/05/27 10:40:00;;;;;;;2.22;2.03;;;20.10;65.40;;;;;;5010598;28;20099;-84
2023/05/27 10:42:27;;;;;;;2.80;2.35;;;20.10;65.30;;;;;;5009013;28;20106;-84
2023/05/27 10:45:06;;;;;;;2.65;2.22;;;20.20;65.30;;;;;;5026031;28;20049;-81
2023/05/27 10:47:34;;;;;;;2.50;2.10;;;20.20;65.30;;;;;;5040189;28;20107;-81
2023/05/27 10:50:08;;;;;;;2.78;2.05;;;20.20;65.30;;;;;;5040999;28;20037;-85
2023/05/27 10:52:36;;;;;;;2.88;2.20;;;20.20;65.30;;;;;;5016149;28;20302;-83
2023/05/27 10:55:02;;;;;;;3.65;2.10;;;20.20;65.20;;;;;;5036783;28;20368;-80
2023/05/27 10:57:30;;;;;;;3.47;2.20;;;20.20;65.20;;;;;;5040519;28;20053;-80
2023/05/27 10:59:56;;;;;;;2.92;2.15;;;20.20;65.30;;;;;;5012729;28;20232;-79
2023/05/27 11:02:22;;;;;;;2.45;1.80;;;20.20;65.50;;;;;;5007451;28;20053;-81
2023/05/27 11:04:51;;;;;;;3.08;2.20;;;20.20;65.30;;;;;;5027146;28;20056;-80
2023/05/27 11:07:20;;;;;;;4.45;2.00;;;20.20;65.10;;;;;;5013057;28;20514;-81
2023/05/27 11:09:46;;;;;;;2.20;1.92;;;20.30;65.10;;;;;;5042122;28;20045;-80
2023/05/27 11:12:18;;;;;;;2.22;2.03;;;20.30;65.00;;;;;;5045588;28;20107;-80
2023/05/27 11:14:50;;;;;;;3.25;2.10;;;20.30;64.90;;;;;;5027733;28;20064;-78
2023/05/27 11:17:17;;;;;;;1.90;1.80;;;20.30;64.90;;;;;;5043798;28;20056;-78
2023/05/27 11:19:44;;;;;;;1.60;1.50;;;20.30;64.90;;;;;;5047029;28;20053;-78
2023/05/27 11:22:10;;;;;;;2.85;1.90;;;20.30;64.80;;;;;;5039072;28;20418;-77
2023/05/27 11:24:36;;;;;;;2.28;1.80;;;20.30;64.80;;;;;;5038634;28;20045;-77
2023/05/27 11:27:11;;;;;;;2.10;2.00;;;20.30;64.80;;;;;;5038527;28;20048;-77
2023/05/27 11:29:37;;;;;;;2.70;1.92;;;20.30;64.80;;;;;;5043663;28;20063;-77
2023/05/27 11:32:06;;;;;;;2.20;2.00;;;20.30;64.80;;;;;;5008282;28;20495;-78
2023/05/27 11:34:35;;;;;;;2.30;2.08;;;20.30;64.80;;;;;;5027118;28;20162;-77
2023/05/27 11:37:04;;;;;;;2.83;1.85;;;20.30;64.70;;;;;;5045234;28;20061;-78
2023/05/27 11:39:29;;;;;;;2.75;2.08;;;20.30;64.70;;;;;;5026659;28;20534;-77
2023/05/27 11:41:55;;;;;;;1.90;1.80;;;20.30;64.70;;;;;;4692429;28;10000578;-79
2023/05/27 11:44:22;;;;;;;1.90;1.70;;;20.40;64.70;;;;;;5039716;28;20042;-79
2023/05/27 11:46:48;;;;;;;2.72;1.83;;;20.40;64.80;;;;;;5040313;28;20387;-79
2023/05/27 11:49:14;;;;;;;2.17;2.03;;;20.40;64.90;;;;;;5040511;28;20529;-79
2023/05/27 11:51:44;;;;;;;1.90;1.80;;;20.40;64.90;;;;;;5041609;28;20045;-79
2023/05/27 11:54:22;;;;;;;2.47;1.80;;;20.40;65.00;;;;;;5044429;28;20055;-79
2023/05/27 11:56:48;;;;;;;2.17;1.80;;;20.40;65.00;;;;;;5037428;28;20529;-80
2023/05/27 11:59:13;;;;;;;2.70;2.10;;;20.40;64.90;;;;;;5034846;28;20061;-80
2023/05/27 12:01:40;;;;;;;2.40;2.20;;;20.40;65.30;;;;;;5010581;28;20068;-77
2023/05/27 12:04:06;;;;;;;2.00;1.90;;;20.40;64.90;;;;;;5039207;28;20045;-79
2023/05/27 12:06:32;;;;;;;2.42;2.15;;;20.40;64.90;;;;;;5037103;28;20045;-80
2023/05/27 12:08:57;;;;;;;3.35;2.40;;;20.40;64.80;;;;;;5016068;28;20087;-79
2023/05/27 12:11:23;;;;;;;2.55;1.90;;;20.40;64.90;;;;;;5037034;28;20048;-79
2023/05/27 12:13:48;;;;;;;2.22;1.73;;;20.50;64.90;;;;;;5048785;28;20052;-79
2023/05/27 12:16:14;;;;;;;2.70;2.47;;;20.50;65.00;;;;;;5038191;28;20477;-79
2023/05/27 12:18:41;;;;;;;1.95;1.85;;;20.50;65.00;;;;;;5021337;28;20045;-77
2023/05/27 12:21:07;;;;;;;2.60;2.08;;;20.50;64.90;;;;;;5039281;28;20133;-77
2023/05/27 12:23:33;;;;;;;2.13;1.45;;;20.50;64.80;;;;;;5043119;28;20136;-76
2023/05/27 12:25:59;;;;;;;2.15;1.85;;;20.50;64.90;;;;;;5049522;28;20049;-77
2023/05/27 12:28:25;;;;;;;2.53;2.05;;;20.50;64.80;;;;;;5054996;28;20044;-77
2023/05/27 12:30:51;;;;;;;2.88;2.00;;;20.60;64.70;;;;;;5040333;28;20078;-77
2023/05/27 12:33:17;;;;;;;1.90;1.80;;;20.50;64.60;;;;;;5044585;28;20061;-77
2023/05/27 12:35:42;;;;;;;2.28;1.77;;;20.50;64.60;;;;;;5057363;28;20049;-77
2023/05/27 12:38:08;;;;;;;1.73;1.63;;;20.60;64.60;;;;;;5043208;28;20123;-76
2023/05/27 12:40:33;;;;;;;2.20;2.10;;;20.60;64.60;;;;;;5034160;28;20030;-77